createdAt,value
2019-03-21T00:01:29.723Z,95.03
2019-03-21T00:03:59.567Z,87.37
2019-03-21T00:06:28.159Z,90.03
2019-03-21T00:08:57.012Z,88.97
2019-03-21T00:11:42.707Z,93.00
2019-03-21T00:14:20.224Z,88.33
2019-03-21T00:16:48.778Z,92.70
2019-03-21T00:19:17.437Z,94.27
2019-03-21T00:21:46.056Z,79.80
2019-03-21T00:24:14.667Z,90.10
2019-03-21T00:26:43.285Z,91.83
2019-03-21T00:29:11.872Z,89.57
2019-03-21T00:31:40.490Z,100.70
2019-03-21T00:34:09.242Z,97.00
2019-03-21T00:36:37.915Z,98.13
2019-03-21T00:39:07.607Z,97.57
2019-03-21T00:41:35.993Z,92.80
2019-03-21T00:44:05.699Z,94.13
2019-03-21T00:46:34.393Z,102.13
2019-03-21T00:49:02.840Z,91.40
2019-03-21T00:51:31.414Z,95.90
2019-03-21T00:53:59.940Z,96.33
2019-03-21T00:56:28.616Z,95.50
2019-03-21T00:58:57.107Z,94.10
2019-03-21T01:01:25.651Z,99.53
2019-03-21T01:03:54.374Z,89.10
2019-03-21T01:06:22.886Z,94.77
2019-03-21T01:08:51.362Z,91.10
2019-03-21T01:11:20.005Z,92.20
2019-03-21T01:13:48.568Z,88.70
2019-03-21T01:16:17.061Z,89.07
2019-03-21T01:18:45.544Z,87.57
2019-03-21T01:21:14.053Z,88.13
2019-03-21T01:23:42.662Z,94.03
2019-03-21T01:26:11.239Z,90.90
2019-03-21T01:28:39.904Z,87.10
2019-03-21T01:31:08.441Z,88.97
2019-03-21T01:33:36.806Z,85.93
2019-03-21T01:36:05.299Z,90.43
2019-03-21T01:38:34.042Z,93.40
2019-03-21T01:41:02.653Z,89.17
2019-03-21T01:43:31.355Z,88.20
2019-03-21T01:46:00.039Z,81.13
2019-03-21T01:48:28.714Z,83.47
2019-03-21T01:50:57.150Z,82.67
2019-03-21T01:53:25.706Z,89.40
2019-03-21T01:55:54.259Z,85.63
2019-03-21T01:58:22.741Z,90.67
2019-03-21T02:00:51.359Z,81.53
2019-03-21T02:03:19.802Z,90.37
2019-03-21T02:05:48.300Z,79.00
2019-03-21T02:08:16.875Z,82.50
2019-03-21T02:10:45.447Z,87.30
2019-03-21T02:13:13.980Z,85.07
2019-03-21T02:15:42.581Z,83.60
2019-03-21T02:18:11.758Z,83.43
2019-03-21T02:20:40.405Z,86.97
2019-03-21T02:23:09.046Z,82.83
2019-03-21T02:25:37.640Z,81.57
2019-03-21T02:28:06.233Z,76.93
2019-03-21T02:30:35.254Z,73.90
2019-03-21T02:33:05.474Z,74.20
2019-03-21T02:35:34.341Z,74.73
2019-03-21T02:38:03.329Z,71.63
2019-03-21T02:40:31.940Z,77.17
2019-03-21T02:43:00.374Z,68.27
2019-03-21T02:45:28.800Z,77.23
2019-03-21T02:47:57.449Z,75.23
2019-03-21T02:50:27.215Z,70.70
2019-03-21T02:52:55.620Z,69.43
2019-03-21T02:55:24.468Z,67.10
2019-03-21T02:57:53.100Z,70.60
2019-03-21T03:00:22.563Z,68.20
2019-03-21T03:02:51.889Z,68.70
2019-03-21T03:05:21.556Z,68.27
2019-03-21T03:07:49.889Z,70.20
2019-03-21T03:10:19.870Z,65.00
2019-03-21T03:12:48.287Z,64.23
2019-03-21T03:15:22.993Z,71.43
2019-03-21T03:17:47.574Z,69.77
2019-03-21T03:20:16.129Z,73.37
2019-03-21T03:22:44.688Z,75.43
2019-03-21T03:25:14.251Z,66.80
2019-03-21T03:27:43.003Z,73.20
2019-03-21T03:30:13.160Z,74.53
2019-03-21T03:32:41.645Z,67.20
2019-03-21T03:35:10.728Z,77.73
2019-03-21T03:37:39.329Z,63.93
2019-03-21T03:40:09.100Z,66.10
2019-03-21T03:42:37.626Z,65.00
2019-03-21T03:45:07.256Z,65.37
2019-03-21T03:47:35.781Z,62.93
2019-03-21T03:50:05.233Z,67.57
2019-03-21T03:52:33.781Z,62.73
2019-03-21T03:55:02.326Z,65.27
2019-03-21T03:57:30.987Z,68.63
2019-03-21T03:59:59.607Z,70.07
2019-03-21T04:02:28.247Z,71.83
2019-03-21T04:04:56.699Z,74.33
2019-03-21T04:07:25.194Z,68.40
2019-03-21T04:09:53.736Z,67.77
2019-03-21T04:12:22.295Z,65.27
2019-03-21T04:14:50.959Z,70.10
2019-03-21T04:17:19.523Z,63.17
2019-03-21T04:19:47.953Z,63.90
2019-03-21T04:22:16.302Z,64.27
2019-03-21T04:24:44.881Z,62.97
2019-03-21T04:27:13.502Z,60.43
2019-03-21T04:29:42.052Z,59.17
2019-03-21T04:32:10.623Z,63.03
2019-03-21T04:34:39.652Z,63.17
2019-03-21T04:37:08.445Z,62.80
2019-03-21T04:39:37.076Z,61.63
2019-03-21T04:42:05.746Z,61.73
2019-03-21T04:44:34.400Z,55.33
2019-03-21T04:47:03.082Z,57.23
2019-03-21T04:49:31.742Z,58.90
2019-03-21T04:52:00.539Z,49.73
2019-03-21T04:54:28.873Z,57.53
2019-03-21T04:56:57.221Z,53.80
2019-03-21T04:59:25.544Z,49.37
2019-03-21T05:01:53.903Z,48.27
2019-03-21T05:04:22.196Z,50.80
2019-03-21T05:07:17.401Z,54.60
2019-03-21T05:09:45.955Z,45.67
2019-03-21T05:12:17.198Z,47.03
2019-03-21T05:14:45.821Z,48.57
2019-03-21T05:17:14.435Z,47.43
2019-03-21T05:19:42.907Z,49.00
2019-03-21T05:22:11.402Z,49.20
2019-03-21T05:24:40.536Z,50.17
2019-03-21T05:27:11.608Z,46.43
2019-03-21T05:29:40.110Z,47.70
2019-03-21T05:32:08.614Z,48.23
2019-03-21T05:34:37.389Z,52.77
2019-03-21T05:37:06.071Z,50.87
2019-03-21T05:39:34.516Z,53.67
2019-03-21T05:42:05.746Z,54.13
2019-03-21T05:44:37.157Z,53.53
2019-03-21T05:47:05.625Z,60.57
2019-03-21T05:49:33.979Z,54.07
2019-03-21T05:52:02.597Z,58.27
2019-03-21T05:54:30.971Z,57.40
2019-03-21T05:56:59.464Z,54.57
2019-03-21T05:59:28.644Z,51.87
2019-03-21T06:01:58.987Z,51.63
2019-03-21T06:04:28.529Z,57.43
2019-03-21T06:07:08.782Z,56.03
2019-03-21T06:09:37.373Z,53.20
2019-03-21T06:12:07.992Z,59.40
2019-03-21T06:14:36.890Z,55.10
2019-03-21T06:17:08.644Z,52.53
2019-03-21T06:20:14.235Z,51.10
2019-03-21T06:23:03.772Z,52.80
2019-03-21T06:26:03.115Z,50.53
2019-03-21T06:29:03.081Z,49.83
2019-03-21T06:34:22.660Z,54.30
2019-03-21T06:36:51.409Z,54.77
2019-03-21T06:39:19.696Z,59.17
2019-03-21T06:41:48.629Z,61.17
2019-03-21T06:44:23.187Z,55.07
2019-03-21T06:47:05.251Z,55.57
2019-03-21T06:49:33.716Z,55.87
2019-03-21T06:52:05.387Z,65.50
2019-03-21T06:54:33.977Z,58.77
2019-03-21T06:57:11.725Z,53.73
2019-03-21T06:59:43.236Z,52.60
2019-03-21T07:02:11.635Z,49.00
2019-03-21T07:04:40.185Z,43.77
2019-03-21T07:07:08.926Z,48.90
2019-03-21T07:09:37.514Z,49.33
2019-03-21T07:12:06.116Z,48.83
2019-03-21T07:14:34.583Z,51.90
2019-03-21T07:17:02.987Z,54.87
2019-03-21T07:20:31.786Z,47.63
2019-03-21T07:34:04.554Z,54.83
2019-03-21T07:36:47.466Z,52.23
2019-03-21T07:42:44.226Z,52.63
2019-03-21T07:45:12.891Z,49.33
2019-03-21T07:50:53.602Z,49.13
2019-03-21T07:53:22.191Z,48.60
2019-03-21T07:55:50.895Z,50.03
2019-03-21T07:58:19.265Z,49.43
2019-03-21T08:00:47.594Z,50.77
2019-03-21T08:06:42.269Z,47.10
2019-03-21T08:09:10.628Z,58.60
2019-03-21T08:11:39.241Z,55.27
2019-03-21T08:14:08.999Z,60.00
2019-03-21T08:20:06.177Z,55.80
2019-03-21T08:22:34.553Z,52.80
2019-03-21T08:25:02.872Z,55.23
2019-03-21T08:27:31.257Z,52.77
2019-03-21T08:29:59.619Z,57.83
2019-03-21T08:32:28.931Z,52.43
2019-03-21T08:35:00.030Z,47.23
2019-03-21T08:37:28.490Z,46.37
2019-03-21T08:39:56.938Z,47.67
2019-03-21T08:42:25.372Z,48.53
2019-03-21T08:44:53.725Z,45.00
2019-03-21T08:47:23.786Z,41.83
2019-03-21T08:49:52.083Z,48.80
2019-03-21T08:52:20.740Z,39.73
2019-03-21T08:54:49.066Z,40.23
2019-03-21T08:57:17.532Z,41.63
2019-03-21T08:59:47.999Z,36.07
2019-03-21T09:02:15.995Z,32.80
2019-03-21T09:04:44.309Z,32.43
2019-03-21T09:07:12.691Z,33.97
2019-03-21T09:09:41.034Z,31.83
2019-03-21T09:12:09.485Z,35.17
2019-03-21T09:14:38.958Z,31.10
2019-03-21T09:17:07.405Z,29.37
2019-03-21T09:19:35.775Z,31.20
2019-03-21T09:22:04.184Z,30.90
2019-03-21T09:24:32.528Z,30.63
2019-03-21T09:27:00.914Z,29.30
2019-03-21T09:29:29.395Z,33.43
2019-03-21T09:31:57.734Z,33.53
2019-03-21T09:34:26.147Z,33.00
2019-03-21T09:36:54.484Z,30.83
2019-03-21T09:39:22.906Z,29.10
2019-03-21T09:41:51.207Z,28.03
2019-03-21T09:44:26.134Z,29.10
2019-03-21T09:46:54.500Z,31.13
2019-03-21T09:49:25.418Z,30.67
2019-03-21T09:51:54.228Z,30.67
2019-03-21T09:54:22.539Z,30.50
2019-03-21T09:56:50.910Z,30.70
2019-03-21T09:59:19.264Z,30.70
2019-03-21T10:01:47.627Z,29.60
2019-03-21T10:04:15.975Z,31.33
2019-03-21T10:06:44.467Z,34.60
2019-03-21T10:09:12.822Z,30.43
2019-03-21T10:11:43.164Z,31.30
2019-03-21T10:14:11.501Z,28.27
2019-03-21T10:16:39.863Z,30.53
2019-03-21T10:19:08.188Z,31.50
2019-03-21T10:21:43.171Z,28.23
2019-03-21T10:24:06.529Z,29.23
2019-03-21T10:26:34.876Z,33.23
2019-03-21T10:29:03.207Z,32.80
2019-03-21T10:31:31.538Z,36.67
2019-03-21T10:33:59.909Z,31.13
2019-03-21T10:36:28.253Z,33.10
2019-03-21T10:38:59.616Z,29.60
2019-03-21T10:41:28.034Z,33.00
2019-03-21T10:43:56.463Z,28.03
2019-03-21T10:46:24.822Z,32.43
2019-03-21T10:48:53.215Z,33.50
2019-03-21T10:51:21.664Z,32.53
2019-03-21T10:53:50.011Z,28.87
2019-03-21T10:56:18.397Z,32.13
2019-03-21T10:58:46.741Z,33.13
2019-03-21T11:01:15.100Z,33.27
2019-03-21T11:03:43.566Z,33.40
2019-03-21T11:06:12.004Z,32.60
2019-03-21T11:08:40.346Z,33.07
2019-03-21T11:11:08.675Z,36.70
2019-03-21T11:13:36.991Z,32.87
2019-03-21T11:16:05.316Z,36.03
2019-03-21T11:18:36.235Z,36.27
2019-03-21T11:21:03.654Z,34.03
2019-03-21T11:23:32.585Z,31.37
2019-03-21T11:26:00.935Z,36.83
2019-03-21T11:28:29.277Z,33.83
2019-03-21T11:30:57.634Z,31.27
2019-03-21T11:33:26.000Z,33.47
2019-03-21T11:35:54.308Z,31.77
2019-03-21T11:38:22.651Z,34.63
2019-03-21T11:40:50.984Z,33.27
2019-03-21T11:43:20.288Z,31.67
2019-03-21T11:45:48.655Z,34.67
2019-03-21T11:48:17.064Z,32.40
2019-03-21T11:50:45.541Z,38.13
2019-03-21T11:53:13.928Z,34.77
2019-03-21T11:55:42.287Z,37.83
2019-03-21T11:58:10.665Z,32.17
2019-03-21T12:00:43.775Z,28.67
2019-03-21T12:03:10.890Z,29.57
2019-03-21T12:05:39.230Z,30.97
2019-03-21T12:08:07.634Z,34.00
2019-03-21T12:10:36.009Z,30.27
2019-03-21T12:13:04.334Z,31.17
2019-03-21T12:15:32.706Z,31.33
2019-03-21T12:18:01.058Z,25.80
2019-03-21T12:20:30.377Z,26.73
2019-03-21T12:22:58.754Z,26.10
2019-03-21T12:25:27.178Z,26.83
2019-03-21T12:27:56.950Z,24.10
2019-03-21T12:30:38.646Z,25.27
2019-03-21T12:33:07.261Z,24.73
2019-03-21T12:35:35.743Z,25.43
2019-03-21T12:38:04.503Z,22.27
2019-03-21T12:40:32.866Z,21.20
2019-03-21T12:43:01.179Z,20.53
2019-03-21T12:45:29.549Z,22.50
2019-03-21T12:47:57.891Z,22.50
2019-03-21T12:50:26.266Z,23.97
2019-03-21T12:52:54.570Z,20.87
2019-03-21T12:55:22.873Z,22.77
2019-03-21T12:57:51.230Z,20.47
2019-03-21T13:00:29.789Z,20.50
2019-03-21T13:02:59.146Z,20.90
2019-03-21T13:05:29.709Z,23.30
2019-03-21T13:07:58.048Z,22.87
2019-03-21T13:10:26.351Z,18.90
2019-03-21T13:12:54.716Z,22.23
2019-03-21T13:15:29.959Z,24.40
2019-03-21T13:17:55.361Z,23.30
2019-03-21T13:20:23.659Z,23.40
2019-03-21T13:22:53.298Z,22.37
2019-03-21T13:25:22.011Z,26.07
2019-03-21T13:27:50.369Z,23.33
2019-03-21T13:30:18.699Z,24.60
2019-03-21T13:32:47.291Z,22.57
2019-03-21T13:35:15.775Z,25.70
2019-03-21T13:37:45.932Z,24.87
2019-03-21T13:40:14.280Z,22.33
2019-03-21T13:42:42.629Z,24.40
2019-03-21T13:45:11.023Z,21.63
2019-03-21T13:47:39.394Z,22.67
2019-03-21T13:50:07.887Z,23.03
2019-03-21T13:52:36.359Z,23.27
2019-03-21T13:55:07.303Z,20.70
2019-03-21T13:57:35.619Z,21.33
2019-03-21T14:00:05.907Z,20.73
2019-03-21T14:02:34.281Z,22.33
2019-03-21T14:05:04.049Z,26.57
2019-03-21T14:07:32.402Z,24.93
2019-03-21T14:10:00.719Z,22.23
2019-03-21T14:12:30.087Z,22.33
2019-03-21T14:14:58.381Z,25.93
2019-03-21T14:17:26.704Z,24.37
2019-03-21T14:19:55.149Z,25.60
2019-03-21T14:22:23.542Z,24.93
2019-03-21T14:24:53.183Z,24.93
2019-03-21T14:27:21.515Z,23.60
2019-03-21T14:30:00.774Z,25.17
2019-03-21T14:32:20.153Z,22.17
2019-03-21T14:34:48.465Z,22.80
2019-03-21T14:37:16.973Z,22.27
2019-03-21T14:39:45.365Z,21.87
2019-03-21T14:42:13.720Z,21.87
2019-03-21T14:44:42.052Z,24.83
2019-03-21T14:47:10.459Z,22.90
2019-03-21T14:49:38.810Z,26.50
2019-03-21T14:52:07.183Z,23.30
2019-03-21T14:54:35.843Z,25.40
2019-03-21T14:57:04.295Z,23.97
2019-03-21T14:59:32.694Z,24.50
2019-03-21T15:02:01.059Z,22.07
2019-03-21T15:04:29.420Z,21.23
2019-03-21T15:06:57.733Z,19.83
2019-03-21T15:09:26.086Z,20.90
2019-03-21T15:11:54.429Z,20.47
2019-03-21T15:14:22.845Z,19.40
2019-03-21T15:16:51.133Z,21.23
2019-03-21T15:19:19.492Z,21.17
2019-03-21T15:21:47.819Z,20.60
2019-03-21T15:24:16.313Z,20.13
2019-03-21T15:26:44.753Z,23.73
2019-03-21T15:29:13.851Z,22.17
2019-03-21T15:31:42.141Z,23.70
2019-03-21T15:34:10.538Z,28.23
2019-03-21T15:36:38.866Z,23.40
2019-03-21T15:39:08.066Z,22.20
2019-03-21T15:41:36.804Z,23.00
2019-03-21T15:44:05.170Z,23.93
2019-03-21T15:46:33.511Z,25.33
2019-03-21T15:49:01.870Z,22.83
2019-03-21T15:51:30.691Z,29.77
2019-03-21T15:53:59.045Z,28.40
2019-03-21T15:56:27.804Z,23.47
2019-03-21T15:58:56.183Z,26.63
2019-03-21T16:01:24.570Z,25.87
2019-03-21T16:03:52.999Z,25.40
2019-03-21T16:06:21.404Z,23.73
2019-03-21T16:08:49.733Z,22.70
2019-03-21T16:11:18.098Z,23.87
2019-03-21T16:13:46.493Z,27.07
2019-03-21T16:16:18.050Z,23.43
2019-03-21T16:18:46.438Z,23.20
2019-03-21T16:24:36.755Z,23.93
2019-03-21T16:27:05.141Z,26.70
2019-03-21T16:29:34.642Z,34.07
2019-03-21T16:32:03.690Z,25.73
2019-03-21T16:34:32.617Z,23.47
2019-03-21T16:37:03.604Z,25.07
2019-03-21T16:42:42.045Z,23.33
2019-03-21T16:45:11.218Z,23.43
2019-03-21T16:47:39.650Z,22.33
2019-03-21T16:50:08.010Z,23.33
2019-03-21T16:52:36.359Z,22.93
2019-03-21T16:55:05.181Z,20.53
2019-03-21T16:57:33.499Z,24.17
2019-03-21T17:00:01.845Z,23.57
2019-03-21T17:02:30.258Z,24.63
2019-03-21T17:05:07.938Z,21.00
2019-03-21T17:07:36.361Z,23.80
2019-03-21T17:10:08.897Z,23.17
2019-03-21T17:12:37.338Z,24.03
2019-03-21T17:15:11.022Z,28.30
2019-03-21T17:17:40.025Z,21.80
2019-03-21T17:20:08.463Z,27.47
2019-03-21T17:22:36.793Z,29.73
2019-03-21T17:25:05.358Z,36.30
2019-03-21T17:27:33.843Z,27.07
2019-03-21T17:30:02.197Z,21.73
2019-03-21T17:32:30.575Z,24.43
2019-03-21T17:34:58.931Z,23.33
2019-03-21T17:37:27.357Z,22.40
2019-03-21T17:39:55.907Z,25.90
2019-03-21T17:42:24.291Z,26.03
2019-03-21T17:44:53.069Z,21.77
2019-03-21T17:47:22.987Z,28.03
2019-03-21T17:49:51.300Z,23.50
2019-03-21T17:52:19.673Z,31.63
2019-03-21T17:54:48.059Z,26.63
2019-03-21T17:57:16.559Z,30.67
2019-03-21T17:59:44.970Z,30.67
2019-03-21T18:02:16.371Z,26.73
2019-03-21T18:04:44.718Z,28.03
2019-03-21T18:07:13.069Z,27.87
2019-03-21T18:09:41.399Z,30.40
2019-03-21T18:12:09.839Z,31.03
2019-03-21T18:14:38.230Z,35.73
2019-03-21T18:17:06.658Z,31.17
2019-03-21T18:19:35.135Z,30.27
2019-03-21T18:22:03.536Z,29.63
2019-03-21T18:24:31.999Z,29.43
2019-03-21T18:27:00.376Z,28.43
2019-03-21T18:29:28.967Z,27.13
2019-03-21T18:32:04.957Z,33.13
2019-03-21T18:34:33.455Z,25.43
2019-03-21T18:37:03.180Z,27.13
2019-03-21T18:39:31.792Z,28.50
2019-03-21T18:42:00.193Z,32.43
2019-03-21T18:44:28.557Z,28.77
2019-03-21T18:46:56.976Z,30.33
2019-03-21T18:49:25.828Z,30.57
2019-03-21T18:51:54.231Z,26.90
2019-03-21T18:54:22.617Z,30.63
2019-03-21T18:56:52.202Z,31.70
2019-03-21T18:59:20.607Z,34.50
2019-03-21T19:01:58.381Z,37.00
2019-03-21T19:04:21.730Z,38.10
2019-03-21T19:06:50.279Z,38.60
2019-03-21T19:09:18.823Z,33.93
2019-03-21T19:12:02.673Z,39.13
2019-03-21T19:14:31.789Z,35.23
2019-03-21T19:17:06.017Z,35.30
2019-03-21T19:19:37.218Z,36.00
2019-03-21T19:22:05.763Z,34.33
2019-03-21T19:24:34.855Z,36.17
2019-03-21T19:27:03.572Z,37.13
2019-03-21T19:29:32.463Z,35.17
2019-03-21T19:32:01.118Z,33.73
2019-03-21T19:34:30.167Z,33.30
2019-03-21T19:36:58.982Z,34.33
2019-03-21T19:39:27.416Z,33.27
2019-03-21T19:41:55.749Z,31.87
2019-03-21T19:44:24.111Z,28.57
2019-03-21T19:46:53.013Z,30.77
2019-03-21T19:49:21.785Z,30.80
2019-03-21T19:51:50.391Z,33.57
2019-03-21T19:54:19.368Z,29.37
2019-03-21T19:56:48.089Z,34.00
2019-03-21T19:59:17.496Z,33.17
2019-03-21T20:01:45.951Z,36.10
2019-03-21T20:04:26.477Z,34.60
2019-03-21T20:06:54.957Z,30.57
2019-03-21T20:09:23.336Z,33.07
2019-03-21T20:11:53.103Z,32.67
2019-03-21T20:14:21.569Z,34.40
2019-03-21T20:16:50.004Z,34.27
2019-03-21T20:19:18.397Z,32.37
2019-03-21T20:21:48.190Z,33.63
2019-03-21T20:27:26.552Z,35.17
2019-03-21T20:29:54.905Z,36.50
2019-03-21T20:32:23.262Z,35.87
2019-03-21T20:34:52.453Z,36.60
2019-03-21T20:37:20.793Z,38.13
2019-03-21T20:39:49.216Z,35.37
2019-03-21T20:42:17.540Z,39.63
2019-03-21T20:44:45.956Z,35.73
2019-03-21T20:47:14.412Z,34.57
2019-03-21T20:49:43.279Z,35.53
2019-03-21T20:52:11.678Z,33.57
2019-03-21T20:54:40.385Z,31.30
2019-03-21T20:57:08.937Z,31.90
2019-03-21T20:59:37.946Z,31.07
2019-03-21T21:02:06.580Z,31.63
2019-03-21T21:04:35.211Z,31.77
2019-03-21T21:07:03.914Z,36.47
2019-03-21T21:09:32.550Z,31.67
2019-03-21T21:12:01.189Z,34.80
2019-03-21T21:14:30.037Z,34.97
2019-03-21T21:16:58.392Z,35.57
2019-03-21T21:19:27.015Z,36.30
2019-03-21T21:21:55.579Z,36.27
2019-03-21T21:24:23.950Z,37.00
2019-03-21T21:26:52.420Z,40.10
2019-03-21T21:29:20.840Z,42.43
2019-03-21T21:31:49.351Z,43.87
2019-03-21T21:34:18.008Z,40.37
2019-03-21T21:36:46.540Z,39.50
2019-03-21T21:39:15.072Z,39.20
2019-03-21T21:41:43.750Z,41.00
2019-03-21T21:44:12.660Z,41.93
2019-03-21T21:46:41.084Z,39.73
2019-03-21T21:49:09.454Z,37.87
2019-03-21T21:51:37.888Z,38.67
2019-03-21T21:54:06.566Z,40.73
2019-03-21T21:56:34.948Z,40.80
2019-03-21T21:59:03.339Z,41.60
2019-03-21T22:01:31.738Z,36.77
2019-03-21T22:04:04.884Z,41.67
2019-03-21T22:06:30.541Z,38.60
2019-03-21T22:08:59.091Z,38.30
2019-03-21T22:11:27.460Z,40.60
2019-03-21T22:13:56.025Z,41.10
2019-03-21T22:16:24.431Z,44.27
2019-03-21T22:18:52.830Z,41.33
2019-03-21T22:21:21.283Z,39.77
2019-03-21T22:23:49.686Z,41.50
2019-03-21T22:26:34.275Z,40.17
2019-03-21T22:29:02.599Z,38.33
2019-03-21T22:31:30.949Z,36.17
2019-03-21T22:33:59.366Z,35.63
2019-03-21T22:36:27.716Z,31.23
2019-03-21T22:38:56.119Z,27.90
2019-03-21T22:41:24.486Z,28.63
2019-03-21T22:43:52.885Z,31.47
2019-03-21T22:46:21.288Z,31.80
2019-03-21T22:48:49.616Z,32.70
2019-03-21T22:51:18.036Z,32.97
2019-03-21T22:53:46.780Z,30.83
2019-03-21T22:56:15.088Z,31.67
2019-03-21T22:58:43.481Z,30.23
2019-03-21T23:01:11.946Z,26.93
2019-03-21T23:03:40.262Z,26.23
2019-03-21T23:06:08.572Z,21.37
2019-03-21T23:08:36.951Z,23.67
2019-03-21T23:11:06.100Z,21.43
2019-03-21T23:13:34.356Z,20.23
2019-03-21T23:16:02.693Z,22.60
2019-03-21T23:21:52.910Z,27.47
2019-03-21T23:25:08.912Z,29.73
2019-03-21T23:27:37.240Z,30.87
2019-03-21T23:30:06.745Z,30.13
2019-03-21T23:32:35.072Z,32.40
2019-03-21T23:35:03.436Z,33.03
2019-03-21T23:37:31.764Z,34.67
2019-03-21T23:40:00.132Z,34.67
2019-03-21T23:42:28.458Z,38.30
2019-03-21T23:44:56.767Z,37.23
2019-03-21T23:47:25.115Z,35.67
2019-03-21T23:49:53.431Z,38.40
2019-03-21T23:52:21.790Z,41.97
2019-03-21T23:54:50.137Z,38.33
2019-03-21T23:57:18.490Z,43.37
2019-03-21T23:59:46.825Z,38.60
